createdAt,value
2022-08-23T00:00:50.074Z,19.17
2022-08-23T00:01:50.060Z,19.25
2022-08-23T00:02:50.119Z,19.30
2022-08-23T00:03:50.036Z,19.32
2022-08-23T00:05:07.701Z,19.32
2022-08-23T00:05:50.009Z,19.39
2022-08-23T00:06:49.993Z,19.43
2022-08-23T00:07:49.982Z,19.46
2022-08-23T00:08:49.969Z,19.49
2022-08-23T00:09:49.957Z,19.57
2022-08-23T00:10:49.941Z,19.65
2022-08-23T00:11:49.933Z,19.70
2022-08-23T00:12:49.914Z,19.80
2022-08-23T00:13:49.904Z,19.83
2022-08-23T00:14:49.888Z,19.87
2022-08-23T00:15:49.877Z,19.87
2022-08-23T00:16:49.863Z,19.86
2022-08-23T00:17:49.852Z,19.81
2022-08-23T00:18:49.836Z,19.77
2022-08-23T00:19:49.826Z,19.68
2022-08-23T00:20:49.820Z,19.62
2022-08-23T00:21:49.801Z,19.54
2022-08-23T00:22:49.787Z,19.49
2022-08-23T00:23:49.776Z,19.43
2022-08-23T00:24:49.761Z,19.42
2022-08-23T00:25:49.749Z,19.36
2022-08-23T00:26:49.735Z,19.30
2022-08-23T00:27:49.723Z,19.25
2022-08-23T00:28:49.709Z,19.20
2022-08-23T00:29:49.696Z,19.15
2022-08-23T00:30:49.686Z,19.06
2022-08-23T00:31:49.670Z,19.00
2022-08-23T00:32:49.658Z,18.94
2022-08-23T00:33:49.643Z,18.88
2022-08-23T00:34:49.631Z,18.81
2022-08-23T00:35:49.617Z,18.76
2022-08-23T00:36:49.607Z,18.70
2022-08-23T00:37:51.620Z,18.63
2022-08-23T00:38:49.579Z,18.50
2022-08-23T00:39:49.690Z,18.42
2022-08-23T00:40:49.553Z,18.35
2022-08-23T00:41:49.539Z,18.29
2022-08-23T00:42:49.527Z,18.32
2022-08-23T00:43:49.519Z,18.28
2022-08-23T00:44:49.501Z,18.24
2022-08-23T00:45:49.487Z,18.24
2022-08-23T00:46:49.476Z,18.25
2022-08-23T00:47:49.463Z,18.25
2022-08-23T00:48:49.449Z,18.22
2022-08-23T00:49:49.435Z,18.17
2022-08-23T00:50:49.423Z,18.16
2022-08-23T00:51:53.121Z,18.10
2022-08-23T00:52:49.399Z,18.06
2022-08-23T00:53:49.383Z,18.01
2022-08-23T00:54:49.372Z,17.96
2022-08-23T00:55:49.357Z,17.92
2022-08-23T00:56:49.346Z,17.92
2022-08-23T00:57:49.332Z,17.92
2022-08-23T00:58:49.321Z,17.92
2022-08-23T00:59:49.306Z,17.88
2022-08-23T01:00:49.294Z,17.89
2022-08-23T01:01:49.400Z,17.89
2022-08-23T01:02:49.268Z,17.88
2022-08-23T01:03:49.254Z,17.88
2022-08-23T01:04:49.243Z,17.83
2022-08-23T01:05:49.229Z,17.85
2022-08-23T01:06:49.219Z,17.83
2022-08-23T01:07:49.202Z,17.83
2022-08-23T01:08:49.190Z,17.80
2022-08-23T01:09:49.176Z,17.80
2022-08-23T01:10:49.165Z,17.89
2022-08-23T01:11:49.149Z,17.91
2022-08-23T01:12:49.138Z,17.85
2022-08-23T01:13:49.124Z,17.88
2022-08-23T01:14:49.113Z,17.89
2022-08-23T01:15:49.098Z,17.83
2022-08-23T01:16:49.087Z,17.78
2022-08-23T01:17:49.072Z,17.76
2022-08-23T01:18:49.062Z,17.71
2022-08-23T01:19:49.047Z,17.69
2022-08-23T01:20:49.034Z,17.67
2022-08-23T01:21:49.021Z,17.65
2022-08-23T01:22:49.011Z,17.61
2022-08-23T01:23:48.997Z,17.55
2022-08-23T01:25:08.344Z,17.54
2022-08-23T01:25:48.970Z,17.49
2022-08-23T01:26:48.957Z,17.55
2022-08-23T01:27:48.943Z,17.61
2022-08-23T01:28:48.933Z,17.73
2022-08-23T01:29:48.918Z,17.83
2022-08-23T01:30:48.907Z,17.85
2022-08-23T01:31:48.891Z,17.86
2022-08-23T01:32:48.879Z,17.83
2022-08-23T01:33:48.865Z,17.78
2022-08-23T01:34:51.705Z,17.70
2022-08-23T01:35:48.840Z,17.59
2022-08-23T01:36:48.829Z,17.55
2022-08-23T01:37:48.814Z,17.48
2022-08-23T01:38:48.802Z,17.40
2022-08-23T01:39:48.828Z,17.33
2022-08-23T01:40:48.778Z,17.25
2022-08-23T01:41:48.762Z,17.26
2022-08-23T01:42:48.751Z,17.25
2022-08-23T01:43:48.736Z,17.23
2022-08-23T01:44:48.724Z,17.30
2022-08-23T01:45:48.715Z,17.31
2022-08-23T01:46:48.699Z,17.33
2022-08-23T01:47:48.685Z,17.33
2022-08-23T01:48:48.673Z,17.30
2022-08-23T01:49:48.659Z,17.30
2022-08-23T01:50:48.649Z,17.19
2022-08-23T01:51:48.633Z,17.15
2022-08-23T01:52:48.621Z,17.14
2022-08-23T01:53:48.608Z,17.11
2022-08-23T01:54:48.595Z,17.03
2022-08-23T01:55:48.582Z,17.00
2022-08-23T01:56:48.574Z,16.91
2022-08-23T01:57:49.651Z,16.84
2022-08-23T01:58:48.544Z,16.81
2022-08-23T01:59:48.530Z,16.78
2022-08-23T02:00:48.520Z,16.74
2022-08-23T02:01:48.709Z,16.66
2022-08-23T02:02:48.492Z,16.66
2022-08-23T02:03:48.478Z,16.62
2022-08-23T02:04:48.466Z,16.63
2022-08-23T02:05:48.502Z,16.63
2022-08-23T02:06:48.441Z,16.74
2022-08-23T02:07:48.426Z,16.74
2022-08-23T02:08:48.414Z,16.75
2022-08-23T02:09:48.400Z,16.80
2022-08-23T02:10:48.390Z,16.77
2022-08-23T02:11:48.374Z,16.75
2022-08-23T02:12:48.364Z,16.78
2022-08-23T02:13:48.349Z,16.80
2022-08-23T02:14:48.337Z,16.78
2022-08-23T02:15:48.324Z,16.80
2022-08-23T02:16:58.067Z,16.80
2022-08-23T02:17:48.298Z,16.77
2022-08-23T02:18:48.287Z,16.75
2022-08-23T02:19:48.271Z,16.74
2022-08-23T02:20:48.259Z,16.77
2022-08-23T02:21:48.249Z,16.69
2022-08-23T02:22:48.234Z,16.65
2022-08-23T02:23:48.219Z,16.57
2022-08-23T02:24:48.207Z,16.48
2022-08-23T02:25:48.194Z,16.44
2022-08-23T02:26:48.183Z,16.41
2022-08-23T02:27:50.172Z,16.37
2022-08-23T02:28:48.156Z,16.33
2022-08-23T02:29:48.141Z,16.30
2022-08-23T02:30:48.131Z,16.26
2022-08-23T02:31:48.115Z,16.23
2022-08-23T02:32:48.106Z,16.20
2022-08-23T02:34:39.580Z,16.17
2022-08-23T02:35:39.563Z,16.12
2022-08-23T02:36:39.551Z,16.12
2022-08-23T02:37:39.544Z,16.14
2022-08-23T02:38:39.524Z,16.26
2022-08-23T02:39:39.513Z,16.34
2022-08-23T02:40:39.496Z,16.38
2022-08-23T02:41:39.482Z,16.40
2022-08-23T02:42:39.472Z,16.37
2022-08-23T02:43:41.054Z,16.37
2022-08-23T02:44:39.444Z,16.32
2022-08-23T02:45:39.427Z,16.26
2022-08-23T02:46:39.419Z,16.23
2022-08-23T02:47:39.406Z,16.17
2022-08-23T02:48:39.392Z,16.15
2022-08-23T02:49:39.377Z,16.15
2022-08-23T02:50:39.364Z,16.12
2022-08-23T02:51:39.354Z,16.11
2022-08-23T02:52:39.338Z,16.17
2022-08-23T02:53:39.322Z,16.12
2022-08-23T02:54:39.311Z,16.15
2022-08-23T02:55:39.295Z,16.19
2022-08-23T02:56:39.289Z,16.14
2022-08-23T02:57:39.271Z,16.08
2022-08-23T02:58:39.256Z,16.05
2022-08-23T02:59:39.239Z,16.05
2022-08-23T03:00:39.232Z,16.01
2022-08-23T03:01:39.221Z,15.94
2022-08-23T03:02:39.273Z,15.90
2022-08-23T03:03:39.190Z,15.92
2022-08-23T03:04:39.181Z,15.94
2022-08-23T03:05:39.166Z,15.97
2022-08-23T03:06:39.154Z,16.00
2022-08-23T03:07:39.139Z,16.01
2022-08-23T03:08:39.127Z,16.01
2022-08-23T03:09:39.112Z,15.97
2022-08-23T03:10:39.098Z,15.93
2022-08-23T03:11:39.084Z,15.89
2022-08-23T03:12:39.069Z,15.80
2022-08-23T03:13:39.054Z,15.76
2022-08-23T03:14:39.045Z,15.75
2022-08-23T03:15:39.027Z,15.72
2022-08-23T03:16:39.016Z,15.69
2022-08-23T03:17:39.000Z,15.67
2022-08-23T03:18:38.992Z,15.60
2022-08-23T03:19:38.976Z,15.54
2022-08-23T03:20:38.962Z,15.53
2022-08-23T03:21:38.947Z,15.54
2022-08-23T03:22:38.934Z,15.56
2022-08-23T03:23:38.924Z,15.57
2022-08-23T03:24:38.910Z,15.59
2022-08-23T03:25:38.893Z,15.57
2022-08-23T03:26:38.884Z,15.65
2022-08-23T03:27:45.007Z,15.67
2022-08-23T03:28:40.858Z,15.67
2022-08-23T03:29:38.844Z,15.62
2022-08-23T03:30:38.817Z,15.50
2022-08-23T03:31:38.785Z,15.46
2022-08-23T03:32:38.773Z,15.42
2022-08-23T03:33:38.758Z,15.38
2022-08-23T03:34:38.748Z,15.28
2022-08-23T03:35:38.735Z,15.26
2022-08-23T03:36:38.719Z,15.20
2022-08-23T03:37:38.705Z,15.16
2022-08-23T03:38:38.693Z,15.10
2022-08-23T03:39:38.686Z,15.15
2022-08-23T03:40:38.672Z,15.16
2022-08-23T03:41:38.653Z,15.18
2022-08-23T03:42:38.643Z,15.15
2022-08-23T03:43:38.626Z,15.16
2022-08-23T03:45:38.601Z,15.31
2022-08-23T03:46:38.591Z,15.37
2022-08-23T03:47:38.574Z,15.40
2022-08-23T03:48:38.563Z,15.34
2022-08-23T03:49:38.548Z,15.33
2022-08-23T03:50:38.542Z,15.30
2022-08-23T03:51:38.521Z,15.22
2022-08-23T03:52:38.510Z,15.15
2022-08-23T03:53:38.495Z,15.02
2022-08-23T03:54:38.484Z,14.93
2022-08-23T03:55:42.141Z,14.82
2022-08-23T03:56:38.457Z,14.69
2022-08-23T03:57:38.443Z,14.61
2022-08-23T03:58:38.432Z,14.57
2022-08-23T03:59:38.416Z,14.52
2022-08-23T04:00:38.404Z,14.45
2022-08-23T04:01:38.449Z,14.45
2022-08-23T04:02:38.378Z,14.39
2022-08-23T04:03:38.365Z,14.33
2022-08-23T04:04:38.352Z,14.33
2022-08-23T04:05:38.338Z,14.28
2022-08-23T04:06:38.330Z,14.25
2022-08-23T04:07:38.313Z,14.24
2022-08-23T04:08:38.300Z,14.17
2022-08-23T04:09:38.287Z,14.10
2022-08-23T04:10:38.276Z,14.03
2022-08-23T04:11:38.260Z,13.98
2022-08-23T04:12:38.249Z,13.96
2022-08-23T04:13:38.235Z,13.95
2022-08-23T04:14:38.222Z,13.94
2022-08-23T04:15:38.209Z,14.01
2022-08-23T04:16:38.201Z,14.07
2022-08-23T04:17:38.183Z,14.10
2022-08-23T04:18:38.170Z,14.10
2022-08-23T04:19:38.157Z,14.10
2022-08-23T04:20:38.147Z,14.14
2022-08-23T04:21:38.132Z,14.12
2022-08-23T04:22:38.119Z,14.22
2022-08-23T04:23:38.106Z,14.42
2022-08-23T04:24:38.094Z,14.64
2022-08-23T04:25:38.079Z,14.90
2022-08-23T04:26:38.068Z,15.16
2022-08-23T04:27:38.054Z,15.26
2022-08-23T04:28:38.043Z,15.37
2022-08-23T04:29:38.028Z,15.35
2022-08-23T04:30:38.016Z,15.35
2022-08-23T04:31:38.735Z,15.33
2022-08-23T04:32:37.992Z,15.31
2022-08-23T04:33:40.232Z,15.22
2022-08-23T04:34:37.966Z,15.18
2022-08-23T04:35:37.950Z,15.12
2022-08-23T04:36:37.940Z,15.01
2022-08-23T04:37:37.924Z,14.97
2022-08-23T04:38:37.913Z,14.93
2022-08-23T04:39:37.899Z,14.88
2022-08-23T04:40:37.889Z,14.90
2022-08-23T04:41:37.876Z,15.01
2022-08-23T04:42:37.862Z,15.05
2022-08-23T04:43:37.848Z,15.01
2022-08-23T04:44:37.838Z,15.05
2022-08-23T04:45:37.822Z,15.18
2022-08-23T04:46:37.810Z,15.26
2022-08-23T04:47:37.797Z,15.37
2022-08-23T04:48:37.784Z,15.45
2022-08-23T04:49:37.777Z,15.50
2022-08-23T04:50:37.761Z,15.46
2022-08-23T04:51:37.745Z,15.50
2022-08-23T04:52:37.732Z,15.49
2022-08-23T04:53:37.718Z,15.45
2022-08-23T04:54:37.707Z,15.45
2022-08-23T04:55:37.693Z,15.42
2022-08-23T04:56:37.681Z,15.43
2022-08-23T04:57:37.669Z,15.50
2022-08-23T04:58:37.656Z,15.49
2022-08-23T04:59:37.640Z,15.43
2022-08-23T05:00:37.715Z,15.43
2022-08-23T05:01:37.614Z,15.40
2022-08-23T05:02:37.602Z,15.38
2022-08-23T05:03:37.587Z,15.35
2022-08-23T05:04:37.575Z,15.40
2022-08-23T05:05:37.561Z,15.50
2022-08-23T05:06:37.547Z,15.57
2022-08-23T05:07:42.427Z,15.62
2022-08-23T05:08:37.521Z,15.72
2022-08-23T05:09:37.506Z,15.80
2022-08-23T05:10:37.493Z,15.83
2022-08-23T05:11:37.479Z,15.83
2022-08-23T05:12:37.474Z,15.83
2022-08-23T05:13:37.455Z,15.82
2022-08-23T05:14:37.439Z,15.87
2022-08-23T05:15:37.425Z,15.90
2022-08-23T05:16:37.413Z,15.90
2022-08-23T05:17:37.398Z,15.90
2022-08-23T05:18:37.385Z,15.89
2022-08-23T05:19:37.477Z,15.87
2022-08-23T05:20:37.359Z,15.84
2022-08-23T05:21:37.345Z,15.80
2022-08-23T05:22:37.332Z,15.83
2022-08-23T05:23:37.318Z,15.80
2022-08-23T05:24:37.308Z,15.86
2022-08-23T05:25:37.292Z,15.93
2022-08-23T05:26:37.280Z,16.02
2022-08-23T05:27:37.266Z,16.05
2022-08-23T05:28:37.253Z,16.05
2022-08-23T05:29:37.239Z,16.11
2022-08-23T05:30:37.235Z,16.15
2022-08-23T05:31:37.214Z,16.20
2022-08-23T05:32:37.199Z,16.38
2022-08-23T05:33:37.187Z,16.51
2022-08-23T05:34:37.173Z,16.65
2022-08-23T05:35:37.162Z,16.94
2022-08-23T05:36:37.147Z,17.18
2022-08-23T05:37:37.161Z,17.52
2022-08-23T05:38:37.121Z,17.96
2022-08-23T05:39:37.496Z,18.50
2022-08-23T05:40:37.095Z,19.03
2022-08-23T05:41:38.351Z,19.47
2022-08-23T05:42:37.068Z,19.92
2022-08-23T05:43:37.056Z,20.31
2022-08-23T05:44:37.042Z,20.66
2022-08-23T05:45:37.030Z,20.97
2022-08-23T05:46:37.015Z,21.05
2022-08-23T05:47:37.004Z,20.69
2022-08-23T05:48:36.991Z,20.43
2022-08-23T05:49:36.978Z,20.57
2022-08-23T05:50:36.964Z,20.51
2022-08-23T05:51:36.953Z,20.56
2022-08-23T05:52:36.936Z,20.54
2022-08-23T05:53:36.923Z,20.36
2022-08-23T05:54:36.908Z,20.33
2022-08-23T05:55:36.896Z,20.21
2022-08-23T05:56:36.883Z,20.43
2022-08-23T05:57:36.872Z,20.88
2022-08-23T05:58:36.860Z,21.03
2022-08-23T05:59:36.845Z,20.97
2022-08-23T06:00:38.098Z,20.88
2022-08-23T06:01:36.818Z,20.78
2022-08-23T06:02:36.805Z,21.13
2022-08-23T06:03:36.792Z,21.44
2022-08-23T06:04:36.794Z,21.69
2022-08-23T06:05:36.768Z,22.02
2022-08-23T06:06:37.426Z,22.23
2022-08-23T06:07:36.741Z,22.41
2022-08-23T06:08:36.726Z,22.67
2022-08-23T06:09:36.715Z,22.98
2022-08-23T06:10:39.363Z,23.35
2022-08-23T06:11:36.689Z,23.93
2022-08-23T06:12:36.674Z,24.22
2022-08-23T06:13:36.663Z,24.24
2022-08-23T06:14:36.705Z,24.65
2022-08-23T06:15:36.639Z,25.04
2022-08-23T06:16:36.624Z,24.82
2022-08-23T06:17:36.613Z,25.07
2022-08-23T06:18:36.597Z,25.35
2022-08-23T06:19:36.584Z,25.16
2022-08-23T06:20:36.589Z,24.71
2022-08-23T06:21:36.560Z,24.24
2022-08-23T06:22:36.546Z,23.71
2022-08-23T06:23:36.534Z,23.20
2022-08-23T06:24:36.520Z,22.94
2022-08-23T06:25:36.509Z,23.07
2022-08-23T06:26:36.497Z,22.97
2022-08-23T06:27:36.483Z,23.00
2022-08-23T06:28:36.528Z,23.37
2022-08-23T06:29:36.458Z,23.71
2022-08-23T06:30:39.629Z,23.89
2022-08-23T06:31:36.433Z,24.34
2022-08-23T06:32:36.486Z,24.99
2022-08-23T06:33:36.448Z,24.97
2022-08-23T06:34:36.393Z,25.14
2022-08-23T06:35:38.823Z,25.64
2022-08-23T06:36:36.367Z,25.77
2022-08-23T06:37:36.356Z,25.90
2022-08-23T06:38:36.342Z,25.69
2022-08-23T06:39:37.706Z,25.27
2022-08-23T06:40:36.316Z,24.82
2022-08-23T06:41:36.305Z,24.87
2022-08-23T06:42:38.811Z,25.35
2022-08-23T06:43:36.279Z,26.01
2022-08-23T06:44:36.266Z,26.51
2022-08-23T06:45:36.255Z,26.81
2022-08-23T06:46:36.316Z,26.89
2022-08-23T06:47:36.230Z,27.31
2022-08-23T06:48:36.216Z,27.59
2022-08-23T06:49:36.207Z,27.59
2022-08-23T06:50:36.192Z,27.62
2022-08-23T06:51:36.182Z,27.58
2022-08-23T06:52:36.168Z,27.73
2022-08-23T06:53:36.157Z,27.93
2022-08-23T06:54:36.143Z,28.16
2022-08-23T06:55:36.131Z,28.23
2022-08-23T06:56:36.117Z,28.49
2022-08-23T06:57:36.105Z,28.70
2022-08-23T06:58:36.093Z,28.66
2022-08-23T06:59:36.080Z,28.78
2022-08-23T07:00:36.114Z,28.86
2022-08-23T07:01:48.869Z,29.07
2022-08-23T07:02:38.122Z,28.98
2022-08-23T07:03:36.630Z,28.96
2022-08-23T07:04:36.017Z,29.25
2022-08-23T07:05:36.005Z,29.44
2022-08-23T07:06:35.993Z,29.44
2022-08-23T07:07:39.539Z,29.18
2022-08-23T07:08:35.968Z,29.05
2022-08-23T07:09:35.957Z,29.11
2022-08-23T07:10:35.944Z,29.07
2022-08-23T07:11:35.930Z,29.10
2022-08-23T07:12:35.917Z,28.71
2022-08-23T07:13:35.907Z,28.64
2022-08-23T07:14:35.891Z,28.76
2022-08-23T07:15:35.890Z,29.14
2022-08-23T07:16:35.913Z,28.64
2022-08-23T07:17:35.855Z,28.33
2022-08-23T07:18:35.846Z,28.06
2022-08-23T07:19:35.830Z,27.50
2022-08-23T07:20:35.817Z,27.25
2022-08-23T07:21:35.806Z,27.07
2022-08-23T07:22:35.793Z,27.07
2022-08-23T07:23:35.780Z,27.47
2022-08-23T07:24:35.768Z,27.59
2022-08-23T07:25:35.759Z,27.03
2022-08-23T07:27:35.734Z,26.87
2022-08-23T07:28:35.717Z,27.25
2022-08-23T07:29:35.706Z,27.55
2022-08-23T07:30:35.692Z,27.49
2022-08-23T07:31:35.745Z,27.39
2022-08-23T07:32:35.668Z,27.39
2022-08-23T07:33:35.655Z,27.27
2022-08-23T07:34:35.644Z,27.18
2022-08-23T07:35:40.051Z,26.97
2022-08-23T07:36:35.957Z,27.12
2022-08-23T07:37:35.606Z,26.87
2022-08-23T07:38:35.592Z,27.19
2022-08-23T07:39:35.581Z,27.66
2022-08-23T07:40:39.145Z,28.39
2022-08-23T07:41:35.591Z,29.25
2022-08-23T07:42:35.542Z,29.98
2022-08-23T07:43:35.533Z,30.52
2022-08-23T07:44:35.519Z,31.03
2022-08-23T07:46:35.531Z,32.12
2022-08-23T07:47:35.482Z,32.10
2022-08-23T07:48:52.849Z,31.68
2022-08-23T07:49:35.456Z,31.92
2022-08-23T07:50:35.442Z,31.21
2022-08-23T07:51:35.431Z,30.76
2022-08-23T07:52:35.418Z,31.00
2022-08-23T07:53:37.569Z,31.36
2022-08-23T07:54:35.394Z,31.68
2022-08-23T07:55:35.398Z,32.17
2022-08-23T07:56:35.369Z,32.51
2022-08-23T07:57:35.359Z,32.97
2022-08-23T07:58:35.344Z,32.96
2022-08-23T07:59:35.335Z,32.99
2022-08-23T08:00:35.322Z,33.46
2022-08-23T08:01:35.400Z,33.27
2022-08-23T08:02:35.377Z,33.07
2022-08-23T08:03:35.287Z,33.19
2022-08-23T08:04:35.281Z,32.72
2022-08-23T08:05:35.265Z,33.11
2022-08-23T08:06:35.250Z,32.21
2022-08-23T08:07:35.514Z,32.62
2022-08-23T08:08:35.225Z,32.57
2022-08-23T08:09:35.212Z,31.91
2022-08-23T08:10:35.206Z,32.17
2022-08-23T08:11:35.764Z,32.17
2022-08-23T08:12:35.177Z,32.50
2022-08-23T08:13:35.166Z,31.81
2022-08-23T08:14:35.935Z,31.25
2022-08-23T08:15:35.141Z,30.69
2022-08-23T08:16:35.252Z,30.41
2022-08-23T08:17:35.118Z,30.57
2022-08-23T08:18:35.105Z,30.20
2022-08-23T08:19:35.097Z,30.56
2022-08-23T08:20:35.085Z,29.85
2022-08-23T08:21:35.072Z,30.02
2022-08-23T08:22:35.067Z,30.46
2022-08-23T08:23:35.072Z,30.68
2022-08-23T08:24:35.036Z,31.35
2022-08-23T08:25:35.025Z,32.20
2022-08-23T08:26:35.014Z,33.01
2022-08-23T08:27:35.623Z,33.15
2022-08-23T08:28:34.993Z,33.36
2022-08-23T08:29:34.983Z,34.25
2022-08-23T08:30:34.967Z,34.42
2022-08-23T08:31:35.090Z,34.39
2022-08-23T08:32:34.943Z,34.13
2022-08-23T08:33:34.934Z,31.78
2022-08-23T08:34:34.921Z,30.96
2022-08-23T08:35:34.910Z,31.51
2022-08-23T08:36:34.900Z,32.46
2022-08-23T08:37:34.890Z,33.01
2022-08-23T08:38:38.813Z,33.40
2022-08-23T08:39:34.863Z,33.98
2022-08-23T08:40:35.907Z,33.78
2022-08-23T08:41:34.841Z,32.79
2022-08-23T08:42:34.828Z,32.55
2022-08-23T08:43:34.818Z,33.00
2022-08-23T08:44:34.805Z,33.09
2022-08-23T08:45:34.795Z,33.27
2022-08-23T08:46:34.826Z,33.46
2022-08-23T08:47:34.773Z,33.80
2022-08-23T08:48:34.760Z,34.05
2022-08-23T08:49:34.750Z,34.13
2022-08-23T08:50:34.735Z,33.80
2022-08-23T08:51:35.241Z,33.89
2022-08-23T08:52:34.713Z,34.43
2022-08-23T08:53:34.701Z,34.52
2022-08-23T08:54:34.690Z,33.46
2022-08-23T08:55:34.678Z,33.12
2022-08-23T08:56:34.665Z,32.32
2022-08-23T08:57:34.655Z,30.76
2022-08-23T08:58:34.643Z,30.57
2022-08-23T08:59:34.631Z,30.85
2022-08-23T09:00:34.620Z,31.29
2022-08-23T09:01:34.686Z,31.91
2022-08-23T09:02:34.863Z,32.49
2022-08-23T09:03:34.685Z,33.23
2022-08-23T09:04:34.572Z,33.92
2022-08-23T09:05:34.564Z,34.50
2022-08-23T09:06:34.551Z,34.50
2022-08-23T09:07:34.538Z,32.55
2022-08-23T09:08:35.167Z,31.70
2022-08-23T09:09:34.517Z,31.91
2022-08-23T09:10:34.503Z,32.31
2022-08-23T09:11:34.492Z,32.96
2022-08-23T09:12:34.479Z,33.27
2022-08-23T09:13:34.469Z,34.25
2022-08-23T09:14:34.458Z,34.83
2022-08-23T09:15:34.570Z,34.91
2022-08-23T09:16:34.432Z,35.09
2022-08-23T09:17:34.424Z,35.48
2022-08-23T09:18:34.411Z,35.70
2022-08-23T09:19:34.405Z,35.89
2022-08-23T09:20:34.877Z,36.55
2022-08-23T09:21:34.383Z,37.24
2022-08-23T09:22:34.369Z,37.32
2022-08-23T09:23:34.358Z,37.21
2022-08-23T09:24:34.345Z,37.15
2022-08-23T09:25:34.335Z,37.17
2022-08-23T09:26:34.321Z,37.39
2022-08-23T09:27:34.310Z,37.41
2022-08-23T09:28:34.296Z,37.59
2022-08-23T09:29:34.286Z,37.69
2022-08-23T09:30:34.274Z,37.41
2022-08-23T09:31:36.042Z,37.28
2022-08-23T09:32:34.252Z,37.29
2022-08-23T09:33:34.239Z,37.31
2022-08-23T09:34:34.228Z,37.18
2022-08-23T09:35:34.217Z,37.34
2022-08-23T09:36:34.205Z,37.51
2022-08-23T09:37:34.195Z,37.29
2022-08-23T09:38:34.182Z,36.65
2022-08-23T09:39:34.173Z,37.15
2022-08-23T09:40:34.166Z,37.47
2022-08-23T09:41:34.151Z,37.65
2022-08-23T09:42:34.160Z,37.69
2022-08-23T09:43:34.129Z,38.02
2022-08-23T09:44:34.118Z,38.17
2022-08-23T09:45:35.636Z,38.47
2022-08-23T09:46:34.140Z,38.88
2022-08-23T09:47:34.087Z,39.02
2022-08-23T09:48:34.075Z,39.29
2022-08-23T09:49:34.063Z,39.59
2022-08-23T09:50:34.051Z,39.12
2022-08-23T09:51:35.117Z,37.61
2022-08-23T09:52:34.032Z,36.46
2022-08-23T09:53:34.019Z,36.58
2022-08-23T09:54:34.010Z,37.02
2022-08-23T09:55:33.997Z,37.71
2022-08-23T09:56:33.990Z,37.88
2022-08-23T09:57:33.977Z,37.90
2022-08-23T09:58:33.966Z,38.06
2022-08-23T09:59:33.968Z,37.03
2022-08-23T10:00:33.944Z,37.56
2022-08-23T10:01:38.698Z,37.62
2022-08-23T10:02:33.922Z,38.11
2022-08-23T10:03:33.910Z,38.42
2022-08-23T10:04:33.939Z,38.69
2022-08-23T10:05:33.888Z,38.91
2022-08-23T10:06:33.879Z,39.37
2022-08-23T10:07:33.866Z,39.75
2022-08-23T10:08:33.859Z,39.25
2022-08-23T10:09:33.847Z,39.40
2022-08-23T10:10:33.836Z,37.28
2022-08-23T10:11:33.823Z,35.85
2022-08-23T10:12:33.814Z,36.33
2022-08-23T10:13:33.801Z,37.24
2022-08-23T10:14:33.979Z,37.15
2022-08-23T10:15:36.224Z,37.78
2022-08-23T10:16:33.823Z,37.62
2022-08-23T10:17:33.757Z,36.27
2022-08-23T10:18:33.749Z,36.48
2022-08-23T10:19:33.737Z,36.70
2022-08-23T10:20:33.727Z,37.21
2022-08-23T10:21:33.717Z,37.69
2022-08-23T10:22:33.705Z,38.44
2022-08-23T10:23:33.693Z,38.44
2022-08-23T10:24:33.684Z,38.46
2022-08-23T10:25:33.671Z,38.65
2022-08-23T10:26:33.662Z,38.37
2022-08-23T10:27:33.649Z,37.88
2022-08-23T10:28:35.772Z,37.29
2022-08-23T10:29:33.627Z,36.15
2022-08-23T10:30:33.618Z,35.37
2022-08-23T10:31:33.647Z,34.93
2022-08-23T10:32:33.599Z,35.28
2022-08-23T10:33:33.585Z,34.87
2022-08-23T10:34:33.577Z,35.32
2022-08-23T10:35:33.568Z,36.16
2022-08-23T10:36:33.553Z,36.80
2022-08-23T10:37:33.541Z,37.59
2022-08-23T10:38:33.531Z,37.96
2022-08-23T10:39:33.522Z,38.60
2022-08-23T10:40:33.593Z,39.03
2022-08-23T10:41:33.496Z,39.56
2022-08-23T10:42:33.501Z,40.35
2022-08-23T10:43:33.475Z,40.31
2022-08-23T10:44:33.466Z,39.34
2022-08-23T10:45:33.453Z,38.83
2022-08-23T10:46:33.499Z,38.78
2022-08-23T10:47:33.433Z,38.78
2022-08-23T10:48:33.423Z,39.08
2022-08-23T10:49:33.412Z,39.25
2022-08-23T10:50:33.402Z,39.32
2022-08-23T10:51:33.388Z,39.78
2022-08-23T10:52:33.379Z,39.63
2022-08-23T10:53:33.368Z,39.62
2022-08-23T10:54:33.358Z,39.75
2022-08-23T10:55:33.349Z,40.07
2022-08-23T10:56:33.336Z,38.76
2022-08-23T10:57:33.326Z,39.13
2022-08-23T10:58:33.316Z,37.85
2022-08-23T10:59:33.304Z,36.84
2022-08-23T11:00:33.301Z,36.87
2022-08-23T11:01:33.366Z,36.67
2022-08-23T11:02:33.359Z,36.90
2022-08-23T11:03:33.263Z,37.39
2022-08-23T11:04:33.252Z,37.46
2022-08-23T11:05:33.249Z,38.14
2022-08-23T11:06:33.234Z,38.61
2022-08-23T11:07:33.236Z,38.88
2022-08-23T11:08:33.216Z,38.81
2022-08-23T11:09:33.202Z,39.17
2022-08-23T11:10:33.193Z,39.46
2022-08-23T11:11:33.184Z,39.49
2022-08-23T11:12:33.173Z,39.88
2022-08-23T11:13:33.168Z,40.54
2022-08-23T11:14:33.150Z,40.94
2022-08-23T11:15:33.192Z,41.08
2022-08-23T11:16:33.132Z,40.83
2022-08-23T11:17:33.118Z,40.61
2022-08-23T11:18:33.430Z,40.60
2022-08-23T11:19:33.099Z,40.64
2022-08-23T11:20:33.088Z,41.18
2022-08-23T11:21:33.078Z,41.35
2022-08-23T11:22:33.072Z,41.89
2022-08-23T11:23:33.057Z,42.41
2022-08-23T11:24:33.047Z,42.26
2022-08-23T11:25:33.037Z,41.74
2022-08-23T11:26:33.027Z,41.70
2022-08-23T11:27:33.018Z,41.51
2022-08-23T11:28:33.008Z,41.13
2022-08-23T11:29:32.996Z,41.30
2022-08-23T11:30:33.114Z,41.73
2022-08-23T11:31:32.978Z,41.35
2022-08-23T11:32:32.971Z,41.11
2022-08-23T11:33:32.958Z,41.03
2022-08-23T11:34:32.950Z,41.18
2022-08-23T11:35:32.938Z,41.57
2022-08-23T11:36:32.928Z,41.18
2022-08-23T11:37:32.917Z,41.39
2022-08-23T11:38:32.910Z,41.95
2022-08-23T11:39:32.896Z,42.08
2022-08-23T11:40:32.906Z,41.00
2022-08-23T11:41:32.874Z,38.74
2022-08-23T11:42:32.866Z,37.49
2022-08-23T11:43:32.852Z,36.68
2022-08-23T11:44:32.845Z,36.53
2022-08-23T11:45:32.832Z,36.70
2022-08-23T11:47:32.814Z,39.06
2022-08-23T11:48:32.801Z,39.09
2022-08-23T11:49:32.788Z,37.93
2022-08-23T11:50:32.779Z,36.72
2022-08-23T11:51:32.765Z,36.99
2022-08-23T11:52:32.759Z,37.07
2022-08-23T11:53:32.742Z,36.70
2022-08-23T11:54:32.731Z,36.74
2022-08-23T11:55:32.726Z,37.56
2022-08-23T11:56:32.709Z,38.05
2022-08-23T11:57:32.698Z,38.68
2022-08-23T11:58:32.687Z,39.54
2022-08-23T11:59:32.679Z,40.10
2022-08-23T12:00:32.664Z,40.79
2022-08-23T12:01:32.651Z,40.98
2022-08-23T12:02:32.782Z,41.36
2022-08-23T12:03:32.741Z,41.29
2022-08-23T12:04:32.616Z,41.58
2022-08-23T12:05:32.741Z,41.76
2022-08-23T12:06:32.594Z,41.71
2022-08-23T12:07:32.584Z,41.25
2022-08-23T12:08:32.583Z,39.92
2022-08-23T12:09:32.563Z,38.53
2022-08-23T12:10:32.552Z,37.06
2022-08-23T12:11:32.539Z,35.71
2022-08-23T12:12:37.815Z,34.21
2022-08-23T12:13:32.518Z,33.70
2022-08-23T12:14:32.507Z,33.70
2022-08-23T12:15:32.565Z,34.32
2022-08-23T12:16:32.485Z,34.27
2022-08-23T12:17:34.151Z,34.22
2022-08-23T12:18:32.462Z,34.03
2022-08-23T12:19:35.808Z,34.21
2022-08-23T12:20:32.440Z,34.17
2022-08-23T12:21:32.427Z,34.15
2022-08-23T12:22:32.426Z,34.74
2022-08-23T12:23:32.405Z,35.74
2022-08-23T12:24:32.417Z,36.53
2022-08-23T12:25:32.383Z,36.53
2022-08-23T12:26:32.370Z,36.49
2022-08-23T12:27:32.358Z,36.31
2022-08-23T12:28:32.346Z,36.19
2022-08-23T12:29:32.335Z,36.03
2022-08-23T12:30:32.323Z,35.93
2022-08-23T12:31:32.414Z,35.97
2022-08-23T12:32:32.299Z,35.72
2022-08-23T12:33:32.286Z,35.60
2022-08-23T12:34:32.274Z,36.18
2022-08-23T12:35:32.263Z,36.65
2022-08-23T12:36:32.249Z,37.21
2022-08-23T12:37:32.235Z,37.88
2022-08-23T12:38:32.225Z,38.21
2022-08-23T12:39:32.212Z,38.74
2022-08-23T12:40:32.204Z,39.43
2022-08-23T12:41:32.190Z,40.08
2022-08-23T12:42:32.179Z,40.86
2022-08-23T12:43:32.166Z,41.21
2022-08-23T12:44:33.945Z,40.79
2022-08-23T12:45:32.145Z,40.66
2022-08-23T12:46:32.240Z,41.25
2022-08-23T12:47:32.120Z,41.30
2022-08-23T12:48:32.114Z,41.63
2022-08-23T12:49:32.097Z,41.32
2022-08-23T12:50:33.174Z,41.83
2022-08-23T12:51:32.077Z,41.70
2022-08-23T12:52:32.066Z,41.30
2022-08-23T12:53:32.056Z,41.08
2022-08-23T12:54:32.040Z,41.29
2022-08-23T12:55:32.029Z,41.47
2022-08-23T12:56:32.601Z,41.23
2022-08-23T12:57:32.008Z,41.14